sensor_id;sensor_type;location;lat;lon;timestamp;P1;durP1;ratioP1;P2;durP2;ratioP2
54743;SDS011;40639;53.170;6.728;2023-07-20T00:01:22;5.07;;;3.03;;
54743;SDS011;40639;53.170;6.728;2023-07-20T00:03:48;3.58;;;2.40;;
54743;SDS011;40639;53.170;6.728;2023-07-20T00:06:26;5.97;;;3.17;;
54743;SDS011;40639;53.170;6.728;2023-07-20T00:08:55;4.43;;;2.72;;
54743;SDS011;40639;53.170;6.728;2023-07-20T00:11:25;3.65;;;2.42;;
54743;SDS011;40639;53.170;6.728;2023-07-20T00:13:52;3.50;;;2.22;;
54743;SDS011;40639;53.170;6.728;2023-07-20T00:16:18;4.82;;;2.60;;
54743;SDS011;40639;53.170;6.728;2023-07-20T00:18:44;3.88;;;2.47;;
54743;SDS011;40639;53.170;6.728;2023-07-20T00:21:10;6.43;;;2.92;;
54743;SDS011;40639;53.170;6.728;2023-07-20T00:23:37;3.63;;;2.70;;
54743;SDS011;40639;53.170;6.728;2023-07-20T00:26:03;4.38;;;3.15;;
54743;SDS011;40639;53.170;6.728;2023-07-20T00:28:29;4.80;;;2.85;;
54743;SDS011;40639;53.170;6.728;2023-07-20T00:30:56;5.15;;;2.80;;
54743;SDS011;40639;53.170;6.728;2023-07-20T00:33:22;4.15;;;3.10;;
54743;SDS011;40639;53.170;6.728;2023-07-20T00:35:48;13.40;;;3.20;;
54743;SDS011;40639;53.170;6.728;2023-07-20T00:38:14;4.30;;;2.78;;
54743;SDS011;40639;53.170;6.728;2023-07-20T00:40:41;5.93;;;3.58;;
54743;SDS011;40639;53.170;6.728;2023-07-20T00:43:07;6.38;;;3.38;;
54743;SDS011;40639;53.170;6.728;2023-07-20T00:45:34;5.43;;;3.40;;
54743;SDS011;40639;53.170;6.728;2023-07-20T00:48:01;3.60;;;2.95;;
54743;SDS011;40639;53.170;6.728;2023-07-20T00:50:27;5.43;;;3.08;;
54743;SDS011;40639;53.170;6.728;2023-07-20T00:52:54;4.32;;;2.90;;
54743;SDS011;40639;53.170;6.728;2023-07-20T00:55:21;4.63;;;3.03;;
54743;SDS011;40639;53.170;6.728;2023-07-20T00:57:48;3.65;;;2.75;;
54743;SDS011;40639;53.170;6.728;2023-07-20T01:00:14;3.65;;;2.60;;
54743;SDS011;40639;53.170;6.728;2023-07-20T01:02:41;4.03;;;2.83;;
54743;SDS011;40639;53.170;6.728;2023-07-20T01:05:07;3.97;;;2.60;;
54743;SDS011;40639;53.170;6.728;2023-07-20T01:10:10;3.53;;;2.42;;
54743;SDS011;40639;53.170;6.728;2023-07-20T01:12:43;3.67;;;2.38;;
54743;SDS011;40639;53.170;6.728;2023-07-20T01:15:09;3.22;;;2.20;;
54743;SDS011;40639;53.170;6.728;2023-07-20T01:17:36;4.43;;;2.80;;
54743;SDS011;40639;53.170;6.728;2023-07-20T01:20:02;4.53;;;2.75;;
54743;SDS011;40639;53.170;6.728;2023-07-20T01:30:37;3.40;;;2.65;;
54743;SDS011;40639;53.170;6.728;2023-07-20T01:33:05;3.83;;;2.35;;
54743;SDS011;40639;53.170;6.728;2023-07-20T01:35:32;4.28;;;2.20;;
54743;SDS011;40639;53.170;6.728;2023-07-20T01:37:58;3.65;;;2.55;;
54743;SDS011;40639;53.170;6.728;2023-07-20T01:40:25;3.13;;;2.42;;
54743;SDS011;40639;53.170;6.728;2023-07-20T01:42:51;3.50;;;2.58;;
54743;SDS011;40639;53.170;6.728;2023-07-20T01:45:18;4.18;;;2.50;;
54743;SDS011;40639;53.170;6.728;2023-07-20T01:47:44;4.55;;;2.42;;
54743;SDS011;40639;53.170;6.728;2023-07-20T01:50:10;3.83;;;2.40;;
54743;SDS011;40639;53.170;6.728;2023-07-20T01:52:37;5.03;;;2.70;;
54743;SDS011;40639;53.170;6.728;2023-07-20T01:55:03;3.67;;;2.33;;
54743;SDS011;40639;53.170;6.728;2023-07-20T01:57:29;2.88;;;2.35;;
54743;SDS011;40639;53.170;6.728;2023-07-20T01:59:55;3.08;;;2.17;;
54743;SDS011;40639;53.170;6.728;2023-07-20T02:02:23;5.22;;;2.30;;
54743;SDS011;40639;53.170;6.728;2023-07-20T02:04:50;3.65;;;2.20;;
54743;SDS011;40639;53.170;6.728;2023-07-20T02:07:16;4.65;;;3.30;;
54743;SDS011;40639;53.170;6.728;2023-07-20T02:09:42;5.70;;;3.67;;
54743;SDS011;40639;53.170;6.728;2023-07-20T02:12:08;5.13;;;3.55;;
54743;SDS011;40639;53.170;6.728;2023-07-20T02:14:34;4.00;;;2.83;;
54743;SDS011;40639;53.170;6.728;2023-07-20T02:17:00;3.90;;;2.78;;
54743;SDS011;40639;53.170;6.728;2023-07-20T02:19:26;3.97;;;2.60;;
54743;SDS011;40639;53.170;6.728;2023-07-20T02:21:53;4.28;;;2.65;;
54743;SDS011;40639;53.170;6.728;2023-07-20T02:24:19;4.82;;;2.80;;
54743;SDS011;40639;53.170;6.728;2023-07-20T02:26:45;4.60;;;2.90;;
54743;SDS011;40639;53.170;6.728;2023-07-20T02:29:11;4.38;;;3.00;;
54743;SDS011;40639;53.170;6.728;2023-07-20T02:31:38;3.17;;;2.40;;
54743;SDS011;40639;53.170;6.728;2023-07-20T02:34:07;3.50;;;2.50;;
54743;SDS011;40639;53.170;6.728;2023-07-20T02:36:34;4.50;;;2.92;;
54743;SDS011;40639;53.170;6.728;2023-07-20T02:39:00;3.33;;;2.58;;
54743;SDS011;40639;53.170;6.728;2023-07-20T02:41:30;3.72;;;2.50;;
54743;SDS011;40639;53.170;6.728;2023-07-20T02:43:56;4.93;;;2.80;;
54743;SDS011;40639;53.170;6.728;2023-07-20T02:46:22;6.30;;;2.72;;
54743;SDS011;40639;53.170;6.728;2023-07-20T02:48:49;4.03;;;2.55;;
54743;SDS011;40639;53.170;6.728;2023-07-20T02:51:15;4.30;;;2.92;;
54743;SDS011;40639;53.170;6.728;2023-07-20T02:53:41;3.72;;;2.70;;
54743;SDS011;40639;53.170;6.728;2023-07-20T02:56:07;5.18;;;2.58;;
54743;SDS011;40639;53.170;6.728;2023-07-20T02:58:39;4.78;;;2.60;;
54743;SDS011;40639;53.170;6.728;2023-07-20T03:01:08;4.22;;;2.88;;
54743;SDS011;40639;53.170;6.728;2023-07-20T03:03:36;3.58;;;2.47;;
54743;SDS011;40639;53.170;6.728;2023-07-20T03:06:06;6.35;;;2.85;;
54743;SDS011;40639;53.170;6.728;2023-07-20T03:08:34;5.10;;;2.85;;
54743;SDS011;40639;53.170;6.728;2023-07-20T03:11:01;4.05;;;2.63;;
54743;SDS011;40639;53.170;6.728;2023-07-20T03:13:27;4.40;;;2.90;;
54743;SDS011;40639;53.170;6.728;2023-07-20T03:15:53;3.45;;;2.60;;
54743;SDS011;40639;53.170;6.728;2023-07-20T03:18:20;5.38;;;2.78;;
54743;SDS011;40639;53.170;6.728;2023-07-20T03:20:46;5.50;;;2.78;;
54743;SDS011;40639;53.170;6.728;2023-07-20T03:23:13;3.85;;;2.80;;
54743;SDS011;40639;53.170;6.728;2023-07-20T03:25:40;3.35;;;2.60;;
54743;SDS011;40639;53.170;6.728;2023-07-20T03:28:06;5.10;;;3.00;;
54743;SDS011;40639;53.170;6.728;2023-07-20T03:30:33;5.75;;;2.83;;
54743;SDS011;40639;53.170;6.728;2023-07-20T03:32:59;5.07;;;2.88;;
54743;SDS011;40639;53.170;6.728;2023-07-20T03:35:25;3.90;;;2.90;;
54743;SDS011;40639;53.170;6.728;2023-07-20T03:37:51;4.22;;;2.85;;
54743;SDS011;40639;53.170;6.728;2023-07-20T03:40:17;6.03;;;3.13;;
54743;SDS011;40639;53.170;6.728;2023-07-20T03:42:43;4.40;;;3.00;;
54743;SDS011;40639;53.170;6.728;2023-07-20T03:45:09;5.05;;;3.30;;
54743;SDS011;40639;53.170;6.728;2023-07-20T03:47:35;4.57;;;3.20;;
54743;SDS011;40639;53.170;6.728;2023-07-20T03:50:02;4.88;;;3.20;;
54743;SDS011;40639;53.170;6.728;2023-07-20T03:52:30;5.82;;;3.05;;
54743;SDS011;40639;53.170;6.728;2023-07-20T03:54:56;7.07;;;2.80;;
54743;SDS011;40639;53.170;6.728;2023-07-20T03:57:22;6.50;;;3.03;;
54743;SDS011;40639;53.170;6.728;2023-07-20T03:59:48;5.22;;;3.10;;
54743;SDS011;40639;53.170;6.728;2023-07-20T04:02:15;4.43;;;3.25;;
54743;SDS011;40639;53.170;6.728;2023-07-20T04:04:41;3.92;;;2.50;;
54743;SDS011;40639;53.170;6.728;2023-07-20T04:07:07;4.47;;;2.60;;
54743;SDS011;40639;53.170;6.728;2023-07-20T04:09:33;3.33;;;2.53;;
54743;SDS011;40639;53.170;6.728;2023-07-20T04:11:59;7.28;;;2.92;;
54743;SDS011;40639;53.170;6.728;2023-07-20T04:14:25;5.57;;;3.08;;
54743;SDS011;40639;53.170;6.728;2023-07-20T04:16:51;3.50;;;2.60;;
54743;SDS011;40639;53.170;6.728;2023-07-20T04:19:17;5.25;;;3.03;;
54743;SDS011;40639;53.170;6.728;2023-07-20T04:21:44;5.82;;;3.10;;
54743;SDS011;40639;53.170;6.728;2023-07-20T04:24:10;4.28;;;2.70;;
54743;SDS011;40639;53.170;6.728;2023-07-20T04:26:36;5.03;;;2.75;;
54743;SDS011;40639;53.170;6.728;2023-07-20T04:29:02;4.15;;;2.97;;
54743;SDS011;40639;53.170;6.728;2023-07-20T04:31:29;5.75;;;2.92;;
54743;SDS011;40639;53.170;6.728;2023-07-20T04:33:58;4.07;;;2.88;;
54743;SDS011;40639;53.170;6.728;2023-07-20T04:36:24;4.25;;;2.75;;
54743;SDS011;40639;53.170;6.728;2023-07-20T04:38:50;5.22;;;2.72;;
54743;SDS011;40639;53.170;6.728;2023-07-20T04:41:16;6.40;;;3.20;;
54743;SDS011;40639;53.170;6.728;2023-07-20T04:43:43;5.78;;;2.60;;
54743;SDS011;40639;53.170;6.728;2023-07-20T04:46:12;5.15;;;3.05;;
54743;SDS011;40639;53.170;6.728;2023-07-20T04:48:38;4.75;;;2.90;;
54743;SDS011;40639;53.170;6.728;2023-07-20T04:51:05;4.72;;;2.58;;
54743;SDS011;40639;53.170;6.728;2023-07-20T04:53:31;4.35;;;2.67;;
54743;SDS011;40639;53.170;6.728;2023-07-20T04:55:57;2.95;;;2.42;;
54743;SDS011;40639;53.170;6.728;2023-07-20T04:58:24;4.70;;;2.70;;
54743;SDS011;40639;53.170;6.728;2023-07-20T05:00:50;4.97;;;2.80;;
54743;SDS011;40639;53.170;6.728;2023-07-20T05:03:17;4.85;;;3.00;;
54743;SDS011;40639;53.170;6.728;2023-07-20T05:05:43;3.88;;;2.50;;
54743;SDS011;40639;53.170;6.728;2023-07-20T05:08:09;3.85;;;2.20;;
54743;SDS011;40639;53.170;6.728;2023-07-20T05:10:35;6.25;;;2.50;;
54743;SDS011;40639;53.170;6.728;2023-07-20T05:13:01;3.65;;;2.42;;
54743;SDS011;40639;53.170;6.728;2023-07-20T05:15:27;3.97;;;2.78;;
54743;SDS011;40639;53.170;6.728;2023-07-20T05:17:54;5.10;;;2.60;;
54743;SDS011;40639;53.170;6.728;2023-07-20T05:20:20;5.50;;;2.83;;
54743;SDS011;40639;53.170;6.728;2023-07-20T05:22:46;4.38;;;2.78;;
54743;SDS011;40639;53.170;6.728;2023-07-20T05:25:12;5.07;;;3.00;;
54743;SDS011;40639;53.170;6.728;2023-07-20T05:27:38;5.82;;;2.47;;
54743;SDS011;40639;53.170;6.728;2023-07-20T05:30:05;3.38;;;2.50;;
54743;SDS011;40639;53.170;6.728;2023-07-20T05:32:34;5.63;;;3.00;;
54743;SDS011;40639;53.170;6.728;2023-07-20T05:35:01;6.78;;;3.17;;
54743;SDS011;40639;53.170;6.728;2023-07-20T05:37:27;6.00;;;2.78;;
54743;SDS011;40639;53.170;6.728;2023-07-20T05:39:53;4.97;;;2.50;;
54743;SDS011;40639;53.170;6.728;2023-07-20T05:42:19;6.32;;;2.40;;
54743;SDS011;40639;53.170;6.728;2023-07-20T05:44:45;4.05;;;2.40;;
54743;SDS011;40639;53.170;6.728;2023-07-20T05:47:13;4.30;;;2.25;;
54743;SDS011;40639;53.170;6.728;2023-07-20T05:49:39;5.40;;;2.45;;
54743;SDS011;40639;53.170;6.728;2023-07-20T05:52:05;4.10;;;2.22;;
54743;SDS011;40639;53.170;6.728;2023-07-20T05:54:31;3.97;;;2.40;;
54743;SDS011;40639;53.170;6.728;2023-07-20T05:56:57;4.45;;;2.33;;
54743;SDS011;40639;53.170;6.728;2023-07-20T05:59:24;4.55;;;2.40;;
54743;SDS011;40639;53.170;6.728;2023-07-20T06:01:50;4.60;;;2.45;;
54743;SDS011;40639;53.170;6.728;2023-07-20T06:04:16;4.38;;;2.20;;
54743;SDS011;40639;53.170;6.728;2023-07-20T06:06:42;4.57;;;1.73;;
54743;SDS011;40639;53.170;6.728;2023-07-20T06:09:08;4.47;;;1.65;;
54743;SDS011;40639;53.170;6.728;2023-07-20T06:11:37;2.47;;;1.30;;
54743;SDS011;40639;53.170;6.728;2023-07-20T06:14:03;4.32;;;1.60;;
54743;SDS011;40639;53.170;6.728;2023-07-20T06:16:29;3.22;;;1.50;;
54743;SDS011;40639;53.170;6.728;2023-07-20T06:18:56;4.25;;;1.60;;
54743;SDS011;40639;53.170;6.728;2023-07-20T06:21:22;4.65;;;1.67;;
54743;SDS011;40639;53.170;6.728;2023-07-20T06:23:48;7.88;;;1.88;;
54743;SDS011;40639;53.170;6.728;2023-07-20T06:26:14;3.90;;;1.42;;
54743;SDS011;40639;53.170;6.728;2023-07-20T06:28:41;3.80;;;1.58;;
54743;SDS011;40639;53.170;6.728;2023-07-20T06:31:07;4.55;;;1.55;;
54743;SDS011;40639;53.170;6.728;2023-07-20T06:33:33;2.47;;;1.17;;
54743;SDS011;40639;53.170;6.728;2023-07-20T06:36:02;3.25;;;1.05;;
54743;SDS011;40639;53.170;6.728;2023-07-20T06:38:28;4.07;;;1.00;;
54743;SDS011;40639;53.170;6.728;2023-07-20T06:40:55;3.22;;;0.90;;
54743;SDS011;40639;53.170;6.728;2023-07-20T06:43:21;3.13;;;1.02;;
54743;SDS011;40639;53.170;6.728;2023-07-20T06:45:53;2.10;;;0.90;;
54743;SDS011;40639;53.170;6.728;2023-07-20T06:48:19;2.42;;;0.93;;
54743;SDS011;40639;53.170;6.728;2023-07-20T06:50:45;3.47;;;0.98;;
54743;SDS011;40639;53.170;6.728;2023-07-20T06:53:12;1.77;;;0.98;;
54743;SDS011;40639;53.170;6.728;2023-07-20T06:55:38;4.00;;;1.05;;
54743;SDS011;40639;53.170;6.728;2023-07-20T06:58:04;5.07;;;1.13;;
54743;SDS011;40639;53.170;6.728;2023-07-20T07:00:30;5.55;;;1.20;;
54743;SDS011;40639;53.170;6.728;2023-07-20T07:02:56;2.15;;;1.10;;
54743;SDS011;40639;53.170;6.728;2023-07-20T07:05:22;5.13;;;1.00;;
54743;SDS011;40639;53.170;6.728;2023-07-20T07:07:49;3.30;;;1.17;;
54743;SDS011;40639;53.170;6.728;2023-07-20T07:10:15;2.70;;;1.30;;
54743;SDS011;40639;53.170;6.728;2023-07-20T07:12:41;1.73;;;1.08;;
54743;SDS011;40639;53.170;6.728;2023-07-20T07:15:07;3.95;;;1.17;;
54743;SDS011;40639;53.170;6.728;2023-07-20T07:17:35;3.17;;;1.10;;
54743;SDS011;40639;53.170;6.728;2023-07-20T07:20:02;3.42;;;1.38;;
54743;SDS011;40639;53.170;6.728;2023-07-20T07:22:29;5.63;;;1.67;;
54743;SDS011;40639;53.170;6.728;2023-07-20T07:24:55;3.92;;;1.10;;
54743;SDS011;40639;53.170;6.728;2023-07-20T07:27:21;5.53;;;1.63;;
54743;SDS011;40639;53.170;6.728;2023-07-20T07:29:47;1.92;;;1.20;;
54743;SDS011;40639;53.170;6.728;2023-07-20T07:32:14;4.90;;;1.50;;
54743;SDS011;40639;53.170;6.728;2023-07-20T07:34:40;3.63;;;1.30;;
54743;SDS011;40639;53.170;6.728;2023-07-20T07:37:07;4.05;;;1.30;;
54743;SDS011;40639;53.170;6.728;2023-07-20T07:39:33;4.10;;;1.20;;
54743;SDS011;40639;53.170;6.728;2023-07-20T07:41:59;4.90;;;1.30;;
54743;SDS011;40639;53.170;6.728;2023-07-20T07:44:26;3.75;;;1.30;;
54743;SDS011;40639;53.170;6.728;2023-07-20T07:46:52;3.90;;;1.58;;
54743;SDS011;40639;53.170;6.728;2023-07-20T07:49:18;3.90;;;1.60;;
54743;SDS011;40639;53.170;6.728;2023-07-20T07:51:44;6.43;;;1.83;;
54743;SDS011;40639;53.170;6.728;2023-07-20T07:54:11;2.47;;;1.20;;
54743;SDS011;40639;53.170;6.728;2023-07-20T07:56:37;5.30;;;1.70;;
54743;SDS011;40639;53.170;6.728;2023-07-20T07:59:03;9.27;;;2.00;;
54743;SDS011;40639;53.170;6.728;2023-07-20T08:01:29;2.63;;;1.60;;
54743;SDS011;40639;53.170;6.728;2023-07-20T08:03:55;3.45;;;1.42;;
54743;SDS011;40639;53.170;6.728;2023-07-20T08:06:22;5.85;;;2.00;;
54743;SDS011;40639;53.170;6.728;2023-07-20T08:08:49;4.30;;;1.80;;
54743;SDS011;40639;53.170;6.728;2023-07-20T08:11:15;3.80;;;1.75;;
54743;SDS011;40639;53.170;6.728;2023-07-20T08:13:43;3.47;;;1.75;;
54743;SDS011;40639;53.170;6.728;2023-07-20T08:16:09;2.72;;;1.58;;
54743;SDS011;40639;53.170;6.728;2023-07-20T08:18:35;5.38;;;1.75;;
54743;SDS011;40639;53.170;6.728;2023-07-20T08:21:01;6.57;;;1.83;;
54743;SDS011;40639;53.170;6.728;2023-07-20T08:23:28;3.10;;;1.52;;
54743;SDS011;40639;53.170;6.728;2023-07-20T08:25:54;3.78;;;1.58;;
54743;SDS011;40639;53.170;6.728;2023-07-20T08:28:20;3.70;;;1.42;;
54743;SDS011;40639;53.170;6.728;2023-07-20T08:30:47;1.73;;;0.95;;
54743;SDS011;40639;53.170;6.728;2023-07-20T08:33:14;3.63;;;1.30;;
54743;SDS011;40639;53.170;6.728;2023-07-20T08:35:41;8.18;;;1.60;;
54743;SDS011;40639;53.170;6.728;2023-07-20T08:38:07;2.20;;;1.00;;
54743;SDS011;40639;53.170;6.728;2023-07-20T08:40:33;2.20;;;1.20;;
54743;SDS011;40639;53.170;6.728;2023-07-20T08:43:00;2.28;;;0.95;;
54743;SDS011;40639;53.170;6.728;2023-07-20T08:45:29;4.53;;;1.15;;
54743;SDS011;40639;53.170;6.728;2023-07-20T08:47:58;5.05;;;1.05;;
54743;SDS011;40639;53.170;6.728;2023-07-20T08:50:25;1.45;;;0.70;;
54743;SDS011;40639;53.170;6.728;2023-07-20T08:52:52;3.10;;;1.08;;
54743;SDS011;40639;53.170;6.728;2023-07-20T08:55:21;2.22;;;0.50;;
54743;SDS011;40639;53.170;6.728;2023-07-20T08:57:48;3.92;;;1.10;;
54743;SDS011;40639;53.170;6.728;2023-07-20T09:00:16;2.30;;;0.90;;
54743;SDS011;40639;53.170;6.728;2023-07-20T09:02:43;2.25;;;0.88;;
54743;SDS011;40639;53.170;6.728;2023-07-20T09:05:13;2.22;;;0.90;;
54743;SDS011;40639;53.170;6.728;2023-07-20T09:07:40;1.95;;;0.65;;
54743;SDS011;40639;53.170;6.728;2023-07-20T09:10:06;3.13;;;0.80;;
54743;SDS011;40639;53.170;6.728;2023-07-20T09:12:39;2.22;;;0.90;;
54743;SDS011;40639;53.170;6.728;2023-07-20T09:15:06;11.80;;;1.30;;
54743;SDS011;40639;53.170;6.728;2023-07-20T09:17:32;2.35;;;0.80;;
54743;SDS011;40639;53.170;6.728;2023-07-20T09:20:01;5.38;;;1.33;;
54743;SDS011;40639;53.170;6.728;2023-07-20T09:22:30;2.22;;;0.70;;
54743;SDS011;40639;53.170;6.728;2023-07-20T09:24:57;2.05;;;0.80;;
54743;SDS011;40639;53.170;6.728;2023-07-20T09:27:34;2.50;;;1.20;;
54743;SDS011;40639;53.170;6.728;2023-07-20T09:30:01;1.95;;;0.63;;
54743;SDS011;40639;53.170;6.728;2023-07-20T09:32:27;1.40;;;0.70;;
54743;SDS011;40639;53.170;6.728;2023-07-20T09:34:54;2.67;;;0.77;;
54743;SDS011;40639;53.170;6.728;2023-07-20T09:37:21;2.05;;;0.70;;
54743;SDS011;40639;53.170;6.728;2023-07-20T09:39:47;1.52;;;0.60;;
54743;SDS011;40639;53.170;6.728;2023-07-20T09:42:14;2.53;;;0.57;;
54743;SDS011;40639;53.170;6.728;2023-07-20T09:44:44;2.95;;;0.85;;
54743;SDS011;40639;53.170;6.728;2023-07-20T09:47:10;1.55;;;0.60;;
54743;SDS011;40639;53.170;6.728;2023-07-20T09:49:40;5.25;;;1.00;;
54743;SDS011;40639;53.170;6.728;2023-07-20T09:52:08;0.88;;;0.70;;
54743;SDS011;40639;53.170;6.728;2023-07-20T09:54:35;2.30;;;0.70;;
54743;SDS011;40639;53.170;6.728;2023-07-20T09:57:01;1.50;;;0.70;;
54743;SDS011;40639;53.170;6.728;2023-07-20T09:59:28;0.95;;;0.63;;
54743;SDS011;40639;53.170;6.728;2023-07-20T10:01:55;1.88;;;0.70;;
54743;SDS011;40639;53.170;6.728;2023-07-20T10:04:24;1.98;;;0.70;;
54743;SDS011;40639;53.170;6.728;2023-07-20T10:06:51;1.60;;;0.70;;
54743;SDS011;40639;53.170;6.728;2023-07-20T10:09:20;2.47;;;0.80;;
54743;SDS011;40639;53.170;6.728;2023-07-20T10:11:49;1.02;;;0.60;;
54743;SDS011;40639;53.170;6.728;2023-07-20T10:14:16;1.95;;;0.65;;
54743;SDS011;40639;53.170;6.728;2023-07-20T10:16:51;1.77;;;0.60;;
54743;SDS011;40639;53.170;6.728;2023-07-20T10:19:30;2.05;;;0.70;;
54743;SDS011;40639;53.170;6.728;2023-07-20T10:22:48;1.42;;;0.60;;
54743;SDS011;40639;53.170;6.728;2023-07-20T10:24:55;0.80;;;0.57;;
54743;SDS011;40639;53.170;6.728;2023-07-20T10:27:23;1.73;;;0.80;;
54743;SDS011;40639;53.170;6.728;2023-07-20T10:29:56;1.50;;;0.65;;
54743;SDS011;40639;53.170;6.728;2023-07-20T10:32:24;1.23;;;0.40;;
54743;SDS011;40639;53.170;6.728;2023-07-20T10:34:51;1.80;;;0.73;;
54743;SDS011;40639;53.170;6.728;2023-07-20T10:43:05;1.77;;;0.70;;
54743;SDS011;40639;53.170;6.728;2023-07-20T10:45:35;2.85;;;0.60;;
54743;SDS011;40639;53.170;6.728;2023-07-20T10:48:34;1.48;;;0.65;;
54743;SDS011;40639;53.170;6.728;2023-07-20T10:51:09;2.58;;;0.60;;
54743;SDS011;40639;53.170;6.728;2023-07-20T10:53:35;4.18;;;0.80;;
54743;SDS011;40639;53.170;6.728;2023-07-20T10:56:14;4.68;;;1.00;;
54743;SDS011;40639;53.170;6.728;2023-07-20T10:58:41;2.35;;;0.90;;
54743;SDS011;40639;53.170;6.728;2023-07-20T11:01:07;2.47;;;0.85;;
54743;SDS011;40639;53.170;6.728;2023-07-20T11:03:35;3.03;;;0.90;;
54743;SDS011;40639;53.170;6.728;2023-07-20T11:06:29;1.17;;;0.65;;
54743;SDS011;40639;53.170;6.728;2023-07-20T11:08:47;3.85;;;0.90;;
54743;SDS011;40639;53.170;6.728;2023-07-20T11:11:24;2.22;;;0.80;;
54743;SDS011;40639;53.170;6.728;2023-07-20T11:13:54;2.22;;;0.73;;
54743;SDS011;40639;53.170;6.728;2023-07-20T11:16:42;1.30;;;0.60;;
54743;SDS011;40639;53.170;6.728;2023-07-20T11:19:15;1.53;;;0.70;;
54743;SDS011;40639;53.170;6.728;2023-07-20T11:21:42;2.15;;;0.70;;
54743;SDS011;40639;53.170;6.728;2023-07-20T11:24:09;1.20;;;0.80;;
54743;SDS011;40639;53.170;6.728;2023-07-20T11:29:11;2.83;;;0.98;;
54743;SDS011;40639;53.170;6.728;2023-07-20T11:31:38;2.33;;;0.73;;
54743;SDS011;40639;53.170;6.728;2023-07-20T11:34:04;2.85;;;0.82;;
54743;SDS011;40639;53.170;6.728;2023-07-20T11:36:31;2.22;;;1.02;;
54743;SDS011;40639;53.170;6.728;2023-07-20T11:38:58;0.77;;;0.70;;
54743;SDS011;40639;53.170;6.728;2023-07-20T11:41:25;1.73;;;0.80;;
54743;SDS011;40639;53.170;6.728;2023-07-20T11:43:52;5.75;;;0.82;;
54743;SDS011;40639;53.170;6.728;2023-07-20T11:46:18;1.48;;;0.60;;
54743;SDS011;40639;53.170;6.728;2023-07-20T11:48:44;1.95;;;0.90;;
54743;SDS011;40639;53.170;6.728;2023-07-20T11:51:14;1.38;;;0.70;;
54743;SDS011;40639;53.170;6.728;2023-07-20T11:53:41;1.63;;;0.70;;
54743;SDS011;40639;53.170;6.728;2023-07-20T11:56:07;2.10;;;0.60;;
54743;SDS011;40639;53.170;6.728;2023-07-20T11:58:33;1.27;;;0.77;;
54743;SDS011;40639;53.170;6.728;2023-07-20T12:01:00;4.07;;;0.88;;
54743;SDS011;40639;53.170;6.728;2023-07-20T12:03:27;1.38;;;0.90;;
54743;SDS011;40639;53.170;6.728;2023-07-20T12:05:53;1.85;;;0.65;;
54743;SDS011;40639;53.170;6.728;2023-07-20T12:08:19;1.13;;;0.65;;
54743;SDS011;40639;53.170;6.728;2023-07-20T12:10:45;1.42;;;0.70;;
54743;SDS011;40639;53.170;6.728;2023-07-20T12:13:12;3.47;;;0.68;;
54743;SDS011;40639;53.170;6.728;2023-07-20T12:15:38;1.73;;;0.52;;
54743;SDS011;40639;53.170;6.728;2023-07-20T12:18:07;1.10;;;0.60;;
54743;SDS011;40639;53.170;6.728;2023-07-20T12:20:34;1.63;;;0.80;;
54743;SDS011;40639;53.170;6.728;2023-07-20T12:23:08;2.25;;;0.85;;
54743;SDS011;40639;53.170;6.728;2023-07-20T12:25:42;1.80;;;0.70;;
54743;SDS011;40639;53.170;6.728;2023-07-20T12:28:12;0.90;;;0.65;;
54743;SDS011;40639;53.170;6.728;2023-07-20T12:30:39;3.13;;;1.13;;
54743;SDS011;40639;53.170;6.728;2023-07-20T12:33:05;3.10;;;0.90;;
54743;SDS011;40639;53.170;6.728;2023-07-20T12:35:32;2.78;;;0.68;;
54743;SDS011;40639;53.170;6.728;2023-07-20T12:37:58;2.95;;;0.82;;
54743;SDS011;40639;53.170;6.728;2023-07-20T12:40:25;3.67;;;0.70;;
54743;SDS011;40639;53.170;6.728;2023-07-20T12:42:51;1.40;;;0.60;;
54743;SDS011;40639;53.170;6.728;2023-07-20T12:45:17;1.35;;;0.70;;
54743;SDS011;40639;53.170;6.728;2023-07-20T12:47:43;2.47;;;1.15;;
54743;SDS011;40639;53.170;6.728;2023-07-20T12:50:10;1.63;;;0.70;;
54743;SDS011;40639;53.170;6.728;2023-07-20T12:52:37;2.33;;;0.70;;
54743;SDS011;40639;53.170;6.728;2023-07-20T12:55:04;1.88;;;0.73;;
54743;SDS011;40639;53.170;6.728;2023-07-20T12:57:31;3.10;;;0.93;;
54743;SDS011;40639;53.170;6.728;2023-07-20T12:59:57;0.88;;;0.47;;
54743;SDS011;40639;53.170;6.728;2023-07-20T13:02:23;4.10;;;0.70;;
54743;SDS011;40639;53.170;6.728;2023-07-20T13:04:49;1.70;;;0.70;;
54743;SDS011;40639;53.170;6.728;2023-07-20T13:07:15;3.25;;;1.05;;
54743;SDS011;40639;53.170;6.728;2023-07-20T13:09:41;1.52;;;0.77;;
54743;SDS011;40639;53.170;6.728;2023-07-20T13:12:08;1.73;;;0.80;;
54743;SDS011;40639;53.170;6.728;2023-07-20T13:14:34;1.92;;;1.08;;
54743;SDS011;40639;53.170;6.728;2023-07-20T13:17:00;2.85;;;0.80;;
54743;SDS011;40639;53.170;6.728;2023-07-20T13:19:26;2.17;;;0.73;;
54743;SDS011;40639;53.170;6.728;2023-07-20T13:21:52;1.88;;;0.85;;
54743;SDS011;40639;53.170;6.728;2023-07-20T13:24:18;3.42;;;0.95;;
54743;SDS011;40639;53.170;6.728;2023-07-20T13:26:45;2.42;;;1.10;;
54743;SDS011;40639;53.170;6.728;2023-07-20T13:29:11;4.18;;;1.02;;
54743;SDS011;40639;53.170;6.728;2023-07-20T13:31:37;1.40;;;0.95;;
54743;SDS011;40639;53.170;6.728;2023-07-20T13:34:03;3.33;;;0.90;;
54743;SDS011;40639;53.170;6.728;2023-07-20T13:36:31;1.58;;;0.98;;
54743;SDS011;40639;53.170;6.728;2023-07-20T13:38:57;0.95;;;0.70;;
54743;SDS011;40639;53.170;6.728;2023-07-20T13:41:23;0.80;;;0.60;;
54743;SDS011;40639;53.170;6.728;2023-07-20T13:43:49;2.80;;;0.85;;
54743;SDS011;40639;53.170;6.728;2023-07-20T13:46:15;1.88;;;0.80;;
54743;SDS011;40639;53.170;6.728;2023-07-20T13:48:41;3.15;;;0.60;;
54743;SDS011;40639;53.170;6.728;2023-07-20T13:51:08;1.48;;;0.77;;
54743;SDS011;40639;53.170;6.728;2023-07-20T13:53:34;1.73;;;0.65;;
54743;SDS011;40639;53.170;6.728;2023-07-20T13:56:00;1.02;;;0.70;;
54743;SDS011;40639;53.170;6.728;2023-07-20T13:58:29;1.42;;;0.70;;
54743;SDS011;40639;53.170;6.728;2023-07-20T14:00:55;2.05;;;0.80;;
54743;SDS011;40639;53.170;6.728;2023-07-20T14:03:21;1.73;;;0.55;;
54743;SDS011;40639;53.170;6.728;2023-07-20T14:05:47;1.70;;;0.80;;
54743;SDS011;40639;53.170;6.728;2023-07-20T14:08:14;1.23;;;0.60;;
54743;SDS011;40639;53.170;6.728;2023-07-20T14:10:40;1.35;;;0.80;;
54743;SDS011;40639;53.170;6.728;2023-07-20T14:13:06;2.03;;;0.98;;
54743;SDS011;40639;53.170;6.728;2023-07-20T14:15:33;1.73;;;0.77;;
54743;SDS011;40639;53.170;6.728;2023-07-20T14:18:00;2.53;;;0.70;;
54743;SDS011;40639;53.170;6.728;2023-07-20T14:20:26;1.65;;;0.70;;
54743;SDS011;40639;53.170;6.728;2023-07-20T14:22:53;2.47;;;0.70;;
54743;SDS011;40639;53.170;6.728;2023-07-20T14:25:19;2.60;;;0.68;;
54743;SDS011;40639;53.170;6.728;2023-07-20T14:27:45;1.50;;;0.80;;
54743;SDS011;40639;53.170;6.728;2023-07-20T14:30:11;1.95;;;0.60;;
54743;SDS011;40639;53.170;6.728;2023-07-20T14:32:38;1.60;;;0.55;;
54743;SDS011;40639;53.170;6.728;2023-07-20T14:35:04;2.30;;;0.60;;
54743;SDS011;40639;53.170;6.728;2023-07-20T14:37:31;3.70;;;0.98;;
54743;SDS011;40639;53.170;6.728;2023-07-20T14:39:58;1.83;;;0.80;;
54743;SDS011;40639;53.170;6.728;2023-07-20T14:42:24;0.90;;;0.60;;
54743;SDS011;40639;53.170;6.728;2023-07-20T14:44:50;1.30;;;0.70;;
54743;SDS011;40639;53.170;6.728;2023-07-20T14:47:16;2.17;;;0.60;;
54743;SDS011;40639;53.170;6.728;2023-07-20T14:49:43;1.45;;;0.80;;
54743;SDS011;40639;53.170;6.728;2023-07-20T14:52:10;1.67;;;1.13;;
54743;SDS011;40639;53.170;6.728;2023-07-20T14:54:37;2.55;;;0.70;;
54743;SDS011;40639;53.170;6.728;2023-07-20T14:57:03;2.30;;;0.90;;
54743;SDS011;40639;53.170;6.728;2023-07-20T14:59:29;1.13;;;0.60;;
54743;SDS011;40639;53.170;6.728;2023-07-20T15:01:59;1.65;;;0.80;;
54743;SDS011;40639;53.170;6.728;2023-07-20T15:04:25;0.93;;;0.60;;
54743;SDS011;40639;53.170;6.728;2023-07-20T15:06:52;2.10;;;1.00;;